sensor_id;sensor_type;location;lat;lon;timestamp;temperature;humidity
22337;DHT22;14992;50.844;4.418;2022-09-09T00:01:18;16.50;99.90
22337;DHT22;14992;50.844;4.418;2022-09-09T00:04:13;16.70;99.90
22337;DHT22;14992;50.844;4.418;2022-09-09T00:07:19;16.80;99.90
22337;DHT22;14992;50.844;4.418;2022-09-09T00:10:14;16.70;99.90
22337;DHT22;14992;50.844;4.418;2022-09-09T00:13:12;16.30;99.90
22337;DHT22;14992;50.844;4.418;2022-09-09T00:16:00;16.30;99.90
22337;DHT22;14992;50.844;4.418;2022-09-09T00:18:56;16.40;99.90
22337;DHT22;14992;50.844;4.418;2022-09-09T00:21:48;16.40;99.90
22337;DHT22;14992;50.844;4.418;2022-09-09T00:24:41;16.40;99.90
22337;DHT22;14992;50.844;4.418;2022-09-09T00:27:34;16.50;99.90
22337;DHT22;14992;50.844;4.418;2022-09-09T00:30:34;16.50;99.90
22337;DHT22;14992;50.844;4.418;2022-09-09T00:33:18;16.50;99.90
22337;DHT22;14992;50.844;4.418;2022-09-09T00:36:12;16.50;99.90
22337;DHT22;14992;50.844;4.418;2022-09-09T00:38:58;16.50;99.90
22337;DHT22;14992;50.844;4.418;2022-09-09T00:42:01;16.70;99.90
22337;DHT22;14992;50.844;4.418;2022-09-09T00:45:05;16.90;99.90
22337;DHT22;14992;50.844;4.418;2022-09-09T00:48:10;16.90;99.90
22337;DHT22;14992;50.844;4.418;2022-09-09T00:50:55;16.90;99.90
22337;DHT22;14992;50.844;4.418;2022-09-09T00:54:03;16.80;99.90
22337;DHT22;14992;50.844;4.418;2022-09-09T00:57:07;16.90;99.90
22337;DHT22;14992;50.844;4.418;2022-09-09T01:00:19;16.80;99.90
22337;DHT22;14992;50.844;4.418;2022-09-09T01:03:14;16.70;99.90
22337;DHT22;14992;50.844;4.418;2022-09-09T01:06:15;16.80;99.90
22337;DHT22;14992;50.844;4.418;2022-09-09T01:09:17;16.80;99.90
22337;DHT22;14992;50.844;4.418;2022-09-09T01:12:24;16.60;99.90
22337;DHT22;14992;50.844;4.418;2022-09-09T01:15:12;16.70;99.90
22337;DHT22;14992;50.844;4.418;2022-09-09T01:18:04;16.80;99.90
22337;DHT22;14992;50.844;4.418;2022-09-09T01:20:54;16.90;99.90
22337;DHT22;14992;50.844;4.418;2022-09-09T01:24:16;16.90;99.90
22337;DHT22;14992;50.844;4.418;2022-09-09T01:27:20;16.90;99.90
22337;DHT22;14992;50.844;4.418;2022-09-09T01:30:17;16.90;99.90
22337;DHT22;14992;50.844;4.418;2022-09-09T01:33:00;16.80;99.90
22337;DHT22;14992;50.844;4.418;2022-09-09T01:35:59;16.80;99.90
22337;DHT22;14992;50.844;4.418;2022-09-09T01:38:47;16.80;99.90
22337;DHT22;14992;50.844;4.418;2022-09-09T01:41:43;16.70;99.90
22337;DHT22;14992;50.844;4.418;2022-09-09T01:44:27;16.70;99.90
22337;DHT22;14992;50.844;4.418;2022-09-09T01:47:23;16.70;99.90
22337;DHT22;14992;50.844;4.418;2022-09-09T01:50:17;16.60;99.90
22337;DHT22;14992;50.844;4.418;2022-09-09T01:53:06;16.60;99.90
22337;DHT22;14992;50.844;4.418;2022-09-09T01:56:03;16.70;99.90
22337;DHT22;14992;50.844;4.418;2022-09-09T01:59:03;16.70;99.90
22337;DHT22;14992;50.844;4.418;2022-09-09T02:02:02;16.90;99.90
22337;DHT22;14992;50.844;4.418;2022-09-09T02:05:21;16.90;99.90
22337;DHT22;14992;50.844;4.418;2022-09-09T02:08:05;16.70;99.90
22337;DHT22;14992;50.844;4.418;2022-09-09T02:11:11;16.80;99.90
22337;DHT22;14992;50.844;4.418;2022-09-09T02:14:01;16.70;99.90
22337;DHT22;14992;50.844;4.418;2022-09-09T02:17:03;16.80;99.90
22337;DHT22;14992;50.844;4.418;2022-09-09T02:20:03;16.90;99.90
22337;DHT22;14992;50.844;4.418;2022-09-09T02:23:04;16.90;99.90
22337;DHT22;14992;50.844;4.418;2022-09-09T02:25:49;16.80;99.90
22337;DHT22;14992;50.844;4.418;2022-09-09T02:28:40;16.80;99.90
22337;DHT22;14992;50.844;4.418;2022-09-09T02:31:23;16.80;99.90
22337;DHT22;14992;50.844;4.418;2022-09-09T02:34:19;16.90;99.90
22337;DHT22;14992;50.844;4.418;2022-09-09T02:37:02;17.00;99.90
22337;DHT22;14992;50.844;4.418;2022-09-09T02:40:00;17.00;99.90
22337;DHT22;14992;50.844;4.418;2022-09-09T02:42:42;17.10;99.90
22337;DHT22;14992;50.844;4.418;2022-09-09T02:45:42;17.00;99.90
22337;DHT22;14992;50.844;4.418;2022-09-09T02:48:29;17.20;99.90
22337;DHT22;14992;50.844;4.418;2022-09-09T02:51:31;17.20;99.90
22337;DHT22;14992;50.844;4.418;2022-09-09T02:54:27;17.20;99.90
22337;DHT22;14992;50.844;4.418;2022-09-09T02:57:27;17.10;99.90
22337;DHT22;14992;50.844;4.418;2022-09-09T03:00:26;16.90;99.90
22337;DHT22;14992;50.844;4.418;2022-09-09T03:03:09;16.90;99.90
22337;DHT22;14992;50.844;4.418;2022-09-09T03:05:59;17.20;99.90
22337;DHT22;14992;50.844;4.418;2022-09-09T03:08:42;17.30;99.90
22337;DHT22;14992;50.844;4.418;2022-09-09T03:11:34;17.10;99.90
22337;DHT22;14992;50.844;4.418;2022-09-09T03:14:17;17.20;99.90
22337;DHT22;14992;50.844;4.418;2022-09-09T03:17:06;17.20;99.90
22337;DHT22;14992;50.844;4.418;2022-09-09T03:20:03;17.00;99.90
22337;DHT22;14992;50.844;4.418;2022-09-09T03:22:44;17.10;99.90
22337;DHT22;14992;50.844;4.418;2022-09-09T03:25:46;17.10;99.90
22337;DHT22;14992;50.844;4.418;2022-09-09T03:28:38;17.10;99.90
22337;DHT22;14992;50.844;4.418;2022-09-09T03:31:35;17.10;99.90
22337;DHT22;14992;50.844;4.418;2022-09-09T03:34:16;17.10;99.90
22337;DHT22;14992;50.844;4.418;2022-09-09T03:37:13;17.10;99.90
22337;DHT22;14992;50.844;4.418;2022-09-09T03:40:01;17.00;99.90
22337;DHT22;14992;50.844;4.418;2022-09-09T03:42:46;17.00;99.90
22337;DHT22;14992;50.844;4.418;2022-09-09T03:45:35;17.20;99.90
22337;DHT22;14992;50.844;4.418;2022-09-09T03:48:17;17.10;99.90
22337;DHT22;14992;50.844;4.418;2022-09-09T03:51:06;17.10;99.90
22337;DHT22;14992;50.844;4.418;2022-09-09T03:53:48;17.00;99.90
22337;DHT22;14992;50.844;4.418;2022-09-09T03:56:38;17.00;99.90
22337;DHT22;14992;50.844;4.418;2022-09-09T03:59:27;16.80;99.90
22337;DHT22;14992;50.844;4.418;2022-09-09T04:02:16;16.80;99.90
22337;DHT22;14992;50.844;4.418;2022-09-09T04:05:11;16.90;99.90
22337;DHT22;14992;50.844;4.418;2022-09-09T04:07:52;16.90;99.90
22337;DHT22;14992;50.844;4.418;2022-09-09T04:10:49;17.00;99.90
22337;DHT22;14992;50.844;4.418;2022-09-09T04:13:32;17.00;99.90
22337;DHT22;14992;50.844;4.418;2022-09-09T04:16:29;17.10;99.90
22337;DHT22;14992;50.844;4.418;2022-09-09T04:19:12;17.10;99.90
22337;DHT22;14992;50.844;4.418;2022-09-09T04:22:08;17.10;99.90
22337;DHT22;14992;50.844;4.418;2022-09-09T04:24:50;17.10;99.90
22337;DHT22;14992;50.844;4.418;2022-09-09T04:27:38;17.00;99.90
22337;DHT22;14992;50.844;4.418;2022-09-09T04:30:19;17.10;99.90
22337;DHT22;14992;50.844;4.418;2022-09-09T04:33:10;17.00;99.90
22337;DHT22;14992;50.844;4.418;2022-09-09T04:35:52;17.00;99.90
22337;DHT22;14992;50.844;4.418;2022-09-09T04:38:41;17.00;99.90
22337;DHT22;14992;50.844;4.418;2022-09-09T04:41:23;17.10;99.90
22337;DHT22;14992;50.844;4.418;2022-09-09T04:44:11;17.00;99.90
22337;DHT22;14992;50.844;4.418;2022-09-09T04:46:54;16.90;99.90
22337;DHT22;14992;50.844;4.418;2022-09-09T04:49:43;16.90;99.90
22337;DHT22;14992;50.844;4.418;2022-09-09T04:52:27;17.10;99.90
22337;DHT22;14992;50.844;4.418;2022-09-09T04:55:23;17.00;99.90
22337;DHT22;14992;50.844;4.418;2022-09-09T04:58:11;17.00;99.90
22337;DHT22;14992;50.844;4.418;2022-09-09T05:01:07;17.20;99.90
22337;DHT22;14992;50.844;4.418;2022-09-09T05:03:51;17.30;99.90
22337;DHT22;14992;50.844;4.418;2022-09-09T05:06:41;17.40;99.90
22337;DHT22;14992;50.844;4.418;2022-09-09T05:09:24;17.30;99.90
22337;DHT22;14992;50.844;4.418;2022-09-09T05:12:12;17.30;99.90
22337;DHT22;14992;50.844;4.418;2022-09-09T05:15:09;17.30;99.90
22337;DHT22;14992;50.844;4.418;2022-09-09T05:17:50;17.40;99.90
22337;DHT22;14992;50.844;4.418;2022-09-09T05:20:46;17.40;99.90
22337;DHT22;14992;50.844;4.418;2022-09-09T05:23:35;17.40;99.90
22337;DHT22;14992;50.844;4.418;2022-09-09T05:26:31;17.50;99.90
22337;DHT22;14992;50.844;4.418;2022-09-09T05:29:12;17.70;99.90
22337;DHT22;14992;50.844;4.418;2022-09-09T05:32:10;17.40;99.90
22337;DHT22;14992;50.844;4.418;2022-09-09T05:34:52;17.50;99.90
22337;DHT22;14992;50.844;4.418;2022-09-09T05:37:41;17.40;99.90
22337;DHT22;14992;50.844;4.418;2022-09-09T05:40:23;17.50;99.90
22337;DHT22;14992;50.844;4.418;2022-09-09T05:43:12;17.50;99.90
22337;DHT22;14992;50.844;4.418;2022-09-09T05:46:08;17.60;99.90
22337;DHT22;14992;50.844;4.418;2022-09-09T05:48:52;17.50;99.90
22337;DHT22;14992;50.844;4.418;2022-09-09T05:51:48;17.40;99.90
22337;DHT22;14992;50.844;4.418;2022-09-09T05:54:24;17.40;99.90
22337;DHT22;14992;50.844;4.418;2022-09-09T05:57:21;17.20;99.90
22337;DHT22;14992;50.844;4.418;2022-09-09T06:00:17;17.40;99.90
22337;DHT22;14992;50.844;4.418;2022-09-09T06:02:59;17.40;99.90
22337;DHT22;14992;50.844;4.418;2022-09-09T06:05:57;17.40;99.90
22337;DHT22;14992;50.844;4.418;2022-09-09T06:08:40;17.30;99.90
22337;DHT22;14992;50.844;4.418;2022-09-09T06:11:30;17.40;99.90
22337;DHT22;14992;50.844;4.418;2022-09-09T06:14:15;17.40;99.90
22337;DHT22;14992;50.844;4.418;2022-09-09T06:17:05;17.50;99.90
22337;DHT22;14992;50.844;4.418;2022-09-09T06:20:00;17.70;99.90
22337;DHT22;14992;50.844;4.418;2022-09-09T06:22:42;17.70;99.90
22337;DHT22;14992;50.844;4.418;2022-09-09T06:25:38;17.80;99.90
22337;DHT22;14992;50.844;4.418;2022-09-09T06:28:19;17.80;99.90
22337;DHT22;14992;50.844;4.418;2022-09-09T06:31:18;17.90;99.90
22337;DHT22;14992;50.844;4.418;2022-09-09T06:34:12;17.90;99.90
22337;DHT22;14992;50.844;4.418;2022-09-09T06:37:07;18.00;99.90
22337;DHT22;14992;50.844;4.418;2022-09-09T06:39:50;18.20;99.90
22337;DHT22;14992;50.844;4.418;2022-09-09T06:42:39;18.20;99.90
22337;DHT22;14992;50.844;4.418;2022-09-09T06:45:34;18.20;99.90
22337;DHT22;14992;50.844;4.418;2022-09-09T06:48:24;18.10;99.90
22337;DHT22;14992;50.844;4.418;2022-09-09T06:51:08;18.00;99.90
22337;DHT22;14992;50.844;4.418;2022-09-09T06:53:59;17.90;99.90
22337;DHT22;14992;50.844;4.418;2022-09-09T06:56:51;17.90;99.90
22337;DHT22;14992;50.844;4.418;2022-09-09T07:00:01;17.90;99.90
22337;DHT22;14992;50.844;4.418;2022-09-09T07:02:51;17.90;99.90
22337;DHT22;14992;50.844;4.418;2022-09-09T07:05:55;18.10;99.90
22337;DHT22;14992;50.844;4.418;2022-09-09T07:08:37;18.20;99.90
22337;DHT22;14992;50.844;4.418;2022-09-09T07:11:38;18.30;99.90
22337;DHT22;14992;50.844;4.418;2022-09-09T07:14:23;18.30;99.90
22337;DHT22;14992;50.844;4.418;2022-09-09T07:17:20;18.30;99.90
22337;DHT22;14992;50.844;4.418;2022-09-09T07:20:02;18.40;99.90
22337;DHT22;14992;50.844;4.418;2022-09-09T07:22:54;18.50;99.90
22337;DHT22;14992;50.844;4.418;2022-09-09T07:25:36;18.50;99.90
22337;DHT22;14992;50.844;4.418;2022-09-09T07:28:25;18.60;99.90
22337;DHT22;14992;50.844;4.418;2022-09-09T07:31:14;18.30;99.90
22337;DHT22;14992;50.844;4.418;2022-09-09T07:34:04;18.30;99.90
22337;DHT22;14992;50.844;4.418;2022-09-09T07:37:00;18.40;99.90
22337;DHT22;14992;50.844;4.418;2022-09-09T07:39:45;18.10;99.90
22337;DHT22;14992;50.844;4.418;2022-09-09T07:42:36;18.20;99.90
22337;DHT22;14992;50.844;4.418;2022-09-09T07:45:17;18.30;99.90
22337;DHT22;14992;50.844;4.418;2022-09-09T07:48:06;18.30;99.90
22337;DHT22;14992;50.844;4.418;2022-09-09T07:50:47;18.20;99.90
22337;DHT22;14992;50.844;4.418;2022-09-09T07:53:36;18.10;99.90
22337;DHT22;14992;50.844;4.418;2022-09-09T07:56:27;18.00;99.90
22337;DHT22;14992;50.844;4.418;2022-09-09T07:59:23;18.00;99.90
22337;DHT22;14992;50.844;4.418;2022-09-09T08:02:05;18.00;99.90
22337;DHT22;14992;50.844;4.418;2022-09-09T08:05:01;18.10;99.90
22337;DHT22;14992;50.844;4.418;2022-09-09T08:07:43;18.00;99.90
22337;DHT22;14992;50.844;4.418;2022-09-09T08:10:39;17.90;99.90
22337;DHT22;14992;50.844;4.418;2022-09-09T08:13:22;17.90;99.90
22337;DHT22;14992;50.844;4.418;2022-09-09T08:16:14;17.90;99.90
22337;DHT22;14992;50.844;4.418;2022-09-09T08:18:58;17.90;99.90
22337;DHT22;14992;50.844;4.418;2022-09-09T08:21:47;18.00;99.90
22337;DHT22;14992;50.844;4.418;2022-09-09T08:24:31;18.30;99.90
22337;DHT22;14992;50.844;4.418;2022-09-09T08:27:19;18.40;99.90
22337;DHT22;14992;50.844;4.418;2022-09-09T08:30:15;18.40;99.90
22337;DHT22;14992;50.844;4.418;2022-09-09T08:32:57;18.70;99.90
22337;DHT22;14992;50.844;4.418;2022-09-09T08:35:54;18.90;99.90
22337;DHT22;14992;50.844;4.418;2022-09-09T08:38:30;19.00;99.90
22337;DHT22;14992;50.844;4.418;2022-09-09T08:41:43;19.10;99.90
22337;DHT22;14992;50.844;4.418;2022-09-09T08:44:41;19.10;99.90
22337;DHT22;14992;50.844;4.418;2022-09-09T08:47:42;19.10;99.90
22337;DHT22;14992;50.844;4.418;2022-09-09T08:50:40;19.00;99.90
22337;DHT22;14992;50.844;4.418;2022-09-09T08:53:28;18.90;99.90
22337;DHT22;14992;50.844;4.418;2022-09-09T08:56:26;18.80;99.90
22337;DHT22;14992;50.844;4.418;2022-09-09T08:59:22;18.70;99.90
22337;DHT22;14992;50.844;4.418;2022-09-09T09:02:21;18.70;99.90
22337;DHT22;14992;50.844;4.418;2022-09-09T09:05:15;18.70;99.90
22337;DHT22;14992;50.844;4.418;2022-09-09T09:08:13;18.70;99.90
22337;DHT22;14992;50.844;4.418;2022-09-09T09:10:58;18.70;99.90
22337;DHT22;14992;50.844;4.418;2022-09-09T09:13:52;18.60;99.90
22337;DHT22;14992;50.844;4.418;2022-09-09T09:16:41;18.50;99.90
22337;DHT22;14992;50.844;4.418;2022-09-09T09:19:35;18.70;99.90
22337;DHT22;14992;50.844;4.418;2022-09-09T09:22:33;18.50;99.90
22337;DHT22;14992;50.844;4.418;2022-09-09T09:25:33;18.50;99.90
22337;DHT22;14992;50.844;4.418;2022-09-09T09:28:17;18.60;99.90
22337;DHT22;14992;50.844;4.418;2022-09-09T09:31:20;18.60;99.90
22337;DHT22;14992;50.844;4.418;2022-09-09T09:33:56;18.70;99.90
22337;DHT22;14992;50.844;4.418;2022-09-09T09:36:54;18.50;99.90
22337;DHT22;14992;50.844;4.418;2022-09-09T09:39:44;18.60;99.90
22337;DHT22;14992;50.844;4.418;2022-09-09T09:42:49;18.40;99.90
22337;DHT22;14992;50.844;4.418;2022-09-09T09:45:42;18.40;99.90
22337;DHT22;14992;50.844;4.418;2022-09-09T09:48:56;18.30;99.90
22337;DHT22;14992;50.844;4.418;2022-09-09T09:51:46;18.50;99.90
22337;DHT22;14992;50.844;4.418;2022-09-09T09:54:31;18.40;99.90
22337;DHT22;14992;50.844;4.418;2022-09-09T09:57:26;18.50;99.90
22337;DHT22;14992;50.844;4.418;2022-09-09T10:00:23;18.50;99.90
22337;DHT22;14992;50.844;4.418;2022-09-09T10:03:23;18.50;99.90
22337;DHT22;14992;50.844;4.418;2022-09-09T10:06:30;18.60;99.90
22337;DHT22;14992;50.844;4.418;2022-09-09T10:09:24;18.70;99.90
22337;DHT22;14992;50.844;4.418;2022-09-09T10:12:30;18.70;99.90
22337;DHT22;14992;50.844;4.418;2022-09-09T10:15:25;18.80;99.90
22337;DHT22;14992;50.844;4.418;2022-09-09T10:18:30;18.70;99.90
22337;DHT22;14992;50.844;4.418;2022-09-09T10:21:25;18.70;99.90
22337;DHT22;14992;50.844;4.418;2022-09-09T10:24:44;18.60;99.90
22337;DHT22;14992;50.844;4.418;2022-09-09T10:27:36;18.70;99.90
22337;DHT22;14992;50.844;4.418;2022-09-09T10:30:49;18.70;99.90
22337;DHT22;14992;50.844;4.418;2022-09-09T10:33:34;18.70;99.90
22337;DHT22;14992;50.844;4.418;2022-09-09T10:36:32;18.70;99.90
22337;DHT22;14992;50.844;4.418;2022-09-09T10:39:23;18.70;99.90
22337;DHT22;14992;50.844;4.418;2022-09-09T10:42:29;18.70;99.90
22337;DHT22;14992;50.844;4.418;2022-09-09T10:45:17;19.00;99.90
22337;DHT22;14992;50.844;4.418;2022-09-09T10:48:24;19.20;99.90
22337;DHT22;14992;50.844;4.418;2022-09-09T10:51:22;19.20;99.90
22337;DHT22;14992;50.844;4.418;2022-09-09T10:54:30;19.20;99.90
22337;DHT22;14992;50.844;4.418;2022-09-09T10:57:26;19.40;99.90
22337;DHT22;14992;50.844;4.418;2022-09-09T11:00:27;19.50;99.90
22337;DHT22;14992;50.844;4.418;2022-09-09T11:03:17;19.40;99.90
22337;DHT22;14992;50.844;4.418;2022-09-09T11:06:18;19.30;99.90
22337;DHT22;14992;50.844;4.418;2022-09-09T11:09:01;19.40;99.90
22337;DHT22;14992;50.844;4.418;2022-09-09T11:12:04;19.70;99.90
22337;DHT22;14992;50.844;4.418;2022-09-09T11:14:50;19.80;99.90
22337;DHT22;14992;50.844;4.418;2022-09-09T11:17:46;19.80;99.90
22337;DHT22;14992;50.844;4.418;2022-09-09T11:20:30;19.70;99.90
22337;DHT22;14992;50.844;4.418;2022-09-09T11:23:22;19.70;99.90
22337;DHT22;14992;50.844;4.418;2022-09-09T11:26:13;19.90;99.90
22337;DHT22;14992;50.844;4.418;2022-09-09T11:29:28;20.00;99.90
22337;DHT22;14992;50.844;4.418;2022-09-09T11:32:27;20.10;99.90
22337;DHT22;14992;50.844;4.418;2022-09-09T11:35:38;20.10;99.90
22337;DHT22;14992;50.844;4.418;2022-09-09T11:38:25;20.10;99.90
22337;DHT22;14992;50.844;4.418;2022-09-09T11:41:22;20.00;99.90
22337;DHT22;14992;50.844;4.418;2022-09-09T11:44:10;19.90;99.90
22337;DHT22;14992;50.844;4.418;2022-09-09T11:47:19;19.90;99.90
22337;DHT22;14992;50.844;4.418;2022-09-09T11:50:31;19.70;99.90
22337;DHT22;14992;50.844;4.418;2022-09-09T11:53:19;19.60;99.90
22337;DHT22;14992;50.844;4.418;2022-09-09T11:56:28;19.60;99.90
22337;DHT22;14992;50.844;4.418;2022-09-09T11:59:26;19.80;99.90
22337;DHT22;14992;50.844;4.418;2022-09-09T12:02:24;19.70;99.90
22337;DHT22;14992;50.844;4.418;2022-09-09T12:05:08;19.60;99.90
22337;DHT22;14992;50.844;4.418;2022-09-09T12:07:59;19.60;99.90
22337;DHT22;14992;50.844;4.418;2022-09-09T12:10:52;19.60;99.90
22337;DHT22;14992;50.844;4.418;2022-09-09T12:13:52;19.60;99.90
22337;DHT22;14992;50.844;4.418;2022-09-09T12:16:48;19.70;99.90
22337;DHT22;14992;50.844;4.418;2022-09-09T12:19:29;19.60;99.90
22337;DHT22;14992;50.844;4.418;2022-09-09T12:22:30;19.60;99.90
22337;DHT22;14992;50.844;4.418;2022-09-09T12:25:23;19.60;99.90
22337;DHT22;14992;50.844;4.418;2022-09-09T12:28:17;19.70;99.90
22337;DHT22;14992;50.844;4.418;2022-09-09T12:31:04;19.70;99.90
22337;DHT22;14992;50.844;4.418;2022-09-09T12:33:54;19.70;99.90
22337;DHT22;14992;50.844;4.418;2022-09-09T12:36:35;19.60;99.90
22337;DHT22;14992;50.844;4.418;2022-09-09T12:39:32;19.80;99.90
22337;DHT22;14992;50.844;4.418;2022-09-09T12:42:21;20.00;99.90
22337;DHT22;14992;50.844;4.418;2022-09-09T12:45:21;20.10;99.90
22337;DHT22;14992;50.844;4.418;2022-09-09T12:48:05;20.20;99.90
22337;DHT22;14992;50.844;4.418;2022-09-09T12:51:05;20.30;99.90
22337;DHT22;14992;50.844;4.418;2022-09-09T12:53:48;20.60;99.90
22337;DHT22;14992;50.844;4.418;2022-09-09T12:56:46;20.80;99.90
22337;DHT22;14992;50.844;4.418;2022-09-09T12:59:44;20.90;99.90
22337;DHT22;14992;50.844;4.418;2022-09-09T13:02:27;20.90;99.90
22337;DHT22;14992;50.844;4.418;2022-09-09T13:05:19;20.90;99.90
22337;DHT22;14992;50.844;4.418;2022-09-09T13:08:02;20.70;99.90
22337;DHT22;14992;50.844;4.418;2022-09-09T13:10:53;20.70;99.90
22337;DHT22;14992;50.844;4.418;2022-09-09T13:13:39;20.80;99.90
22337;DHT22;14992;50.844;4.418;2022-09-09T13:16:32;20.80;99.90
22337;DHT22;14992;50.844;4.418;2022-09-09T13:19:16;20.80;99.90
22337;DHT22;14992;50.844;4.418;2022-09-09T13:22:12;20.80;99.90
22337;DHT22;14992;50.844;4.418;2022-09-09T13:25:19;20.80;99.90
22337;DHT22;14992;50.844;4.418;2022-09-09T13:28:03;20.90;99.90
22337;DHT22;14992;50.844;4.418;2022-09-09T13:30:59;20.90;99.90
22337;DHT22;14992;50.844;4.418;2022-09-09T13:33:50;20.90;99.90
22337;DHT22;14992;50.844;4.418;2022-09-09T13:36:48;20.90;99.90
22337;DHT22;14992;50.844;4.418;2022-09-09T13:39:32;20.90;99.90
22337;DHT22;14992;50.844;4.418;2022-09-09T13:42:26;21.10;99.90
22337;DHT22;14992;50.844;4.418;2022-09-09T13:45:17;21.10;99.90
22337;DHT22;14992;50.844;4.418;2022-09-09T13:48:10;21.20;99.90
22337;DHT22;14992;50.844;4.418;2022-09-09T13:50:58;21.20;99.90
22337;DHT22;14992;50.844;4.418;2022-09-09T13:53:47;21.20;99.90
22337;DHT22;14992;50.844;4.418;2022-09-09T13:56:28;21.20;99.90
22337;DHT22;14992;50.844;4.418;2022-09-09T13:59:18;21.20;99.90
22337;DHT22;14992;50.844;4.418;2022-09-09T14:02:36;21.30;99.90
22337;DHT22;14992;50.844;4.418;2022-09-09T14:05:32;21.30;99.90
22337;DHT22;14992;50.844;4.418;2022-09-09T14:08:24;21.40;99.90
22337;DHT22;14992;50.844;4.418;2022-09-09T14:11:24;21.50;99.90
22337;DHT22;14992;50.844;4.418;2022-09-09T14:14:06;21.60;99.90
22337;DHT22;14992;50.844;4.418;2022-09-09T14:17:02;21.60;99.90
22337;DHT22;14992;50.844;4.418;2022-09-09T14:19:57;21.80;99.90
22337;DHT22;14992;50.844;4.418;2022-09-09T14:22:41;21.80;99.90
22337;DHT22;14992;50.844;4.418;2022-09-09T14:25:43;21.70;99.90
22337;DHT22;14992;50.844;4.418;2022-09-09T14:28:33;21.70;99.90
22337;DHT22;14992;50.844;4.418;2022-09-09T14:31:35;21.50;99.90
22337;DHT22;14992;50.844;4.418;2022-09-09T14:34:18;21.20;99.90
22337;DHT22;14992;50.844;4.418;2022-09-09T14:37:06;21.20;99.90
22337;DHT22;14992;50.844;4.418;2022-09-09T14:40:01;21.20;99.90
22337;DHT22;14992;50.844;4.418;2022-09-09T14:42:45;21.30;99.90
22337;DHT22;14992;50.844;4.418;2022-09-09T14:45:35;21.40;99.90
22337;DHT22;14992;50.844;4.418;2022-09-09T14:48:21;21.50;99.90
22337;DHT22;14992;50.844;4.418;2022-09-09T14:51:21;21.40;99.90
22337;DHT22;14992;50.844;4.418;2022-09-09T14:54:04;21.20;99.90
22337;DHT22;14992;50.844;4.418;2022-09-09T14:56:52;21.20;99.90
22337;DHT22;14992;50.844;4.418;2022-09-09T14:59:49;21.00;99.90
22337;DHT22;14992;50.844;4.418;2022-09-09T15:02:31;20.90;99.90
22337;DHT22;14992;50.844;4.418;2022-09-09T15:05:27;20.90;99.90
22337;DHT22;14992;50.844;4.418;2022-09-09T15:08:08;20.80;99.90
22337;DHT22;14992;50.844;4.418;2022-09-09T15:11:06;20.80;99.90
22337;DHT22;14992;50.844;4.418;2022-09-09T15:13:51;20.90;99.90
22337;DHT22;14992;50.844;4.418;2022-09-09T15:16:48;21.10;99.90
22337;DHT22;14992;50.844;4.418;2022-09-09T15:19:30;21.20;99.90
22337;DHT22;14992;50.844;4.418;2022-09-09T15:22:19;21.20;99.90
22337;DHT22;14992;50.844;4.418;2022-09-09T15:25:08;21.20;99.90
22337;DHT22;14992;50.844;4.418;2022-09-09T15:27:50;21.20;99.90
22337;DHT22;14992;50.844;4.418;2022-09-09T15:30:38;21.30;99.90
22337;DHT22;14992;50.844;4.418;2022-09-09T15:33:21;21.40;99.90
22337;DHT22;14992;50.844;4.418;2022-09-09T15:36:14;21.20;99.90
22337;DHT22;14992;50.844;4.418;2022-09-09T15:38:56;21.20;99.90
22337;DHT22;14992;50.844;4.418;2022-09-09T15:41:46;21.20;99.90
22337;DHT22;14992;50.844;4.418;2022-09-09T15:44:28;21.20;99.90
22337;DHT22;14992;50.844;4.418;2022-09-09T15:47:16;21.10;99.90
22337;DHT22;14992;50.844;4.418;2022-09-09T15:50:13;21.00;99.90
22337;DHT22;14992;50.844;4.418;2022-09-09T15:52:55;21.10;99.90
22337;DHT22;14992;50.844;4.418;2022-09-09T15:55:55;21.10;99.90
22337;DHT22;14992;50.844;4.418;2022-09-09T15:58:36;21.20;99.90
22337;DHT22;14992;50.844;4.418;2022-09-09T16:01:32;21.40;99.90
22337;DHT22;14992;50.844;4.418;2022-09-09T16:04:14;21.30;99.90
22337;DHT22;14992;50.844;4.418;2022-09-09T16:07:12;21.30;99.90
22337;DHT22;14992;50.844;4.418;2022-09-09T16:09:54;21.30;99.90
22337;DHT22;14992;50.844;4.418;2022-09-09T16:12:43;21.20;99.90
22337;DHT22;14992;50.844;4.418;2022-09-09T16:15:26;21.30;99.90
22337;DHT22;14992;50.844;4.418;2022-09-09T16:18:15;21.10;99.90
22337;DHT22;14992;50.844;4.418;2022-09-09T16:20:56;21.10;99.90
22337;DHT22;14992;50.844;4.418;2022-09-09T16:23:47;21.10;99.90
22337;DHT22;14992;50.844;4.418;2022-09-09T16:26:29;21.10;99.90
22337;DHT22;14992;50.844;4.418;2022-09-09T16:29:19;21.00;99.90
22337;DHT22;14992;50.844;4.418;2022-09-09T16:32:01;21.10;99.90
22337;DHT22;14992;50.844;4.418;2022-09-09T16:34:57;21.10;99.90
22337;DHT22;14992;50.844;4.418;2022-09-09T16:37:39;20.90;99.90
22337;DHT22;14992;50.844;4.418;2022-09-09T16:40:36;20.60;99.90
22337;DHT22;14992;50.844;4.418;2022-09-09T16:43:18;20.40;99.90
22337;DHT22;14992;50.844;4.418;2022-09-09T16:46:14;20.30;99.90
22337;DHT22;14992;50.844;4.418;2022-09-09T16:48:59;20.10;99.90
22337;DHT22;14992;50.844;4.418;2022-09-09T16:51:58;20.30;99.90
22337;DHT22;14992;50.844;4.418;2022-09-09T16:54:39;20.20;99.90
22337;DHT22;14992;50.844;4.418;2022-09-09T16:57:29;20.10;99.90
22337;DHT22;14992;50.844;4.418;2022-09-09T17:00:25;20.20;99.90
22337;DHT22;14992;50.844;4.418;2022-09-09T17:03:12;20.50;99.90
22337;DHT22;14992;50.844;4.418;2022-09-09T17:06:12;20.30;99.90
22337;DHT22;14992;50.844;4.418;2022-09-09T17:08:55;20.20;99.90
22337;DHT22;14992;50.844;4.418;2022-09-09T17:11:53;20.10;99.90
22337;DHT22;14992;50.844;4.418;2022-09-09T17:14:36;19.90;99.90
22337;DHT22;14992;50.844;4.418;2022-09-09T17:17:24;20.00;99.90
22337;DHT22;14992;50.844;4.418;2022-09-09T17:20:06;20.00;99.90
22337;DHT22;14992;50.844;4.418;2022-09-09T17:22:56;20.10;99.90
22337;DHT22;14992;50.844;4.418;2022-09-09T17:25:37;20.00;99.90
22337;DHT22;14992;50.844;4.418;2022-09-09T17:28:26;19.80;99.90
22337;DHT22;14992;50.844;4.418;2022-09-09T17:31:10;19.70;99.90
22337;DHT22;14992;50.844;4.418;2022-09-09T17:34:00;19.60;99.90
22337;DHT22;14992;50.844;4.418;2022-09-09T17:36:41;19.60;99.90
22337;DHT22;14992;50.844;4.418;2022-09-09T17:39:23;19.80;99.90
22337;DHT22;14992;50.844;4.418;2022-09-09T17:42:12;19.80;99.90
22337;DHT22;14992;50.844;4.418;2022-09-09T17:45:07;19.80;99.90
22337;DHT22;14992;50.844;4.418;2022-09-09T17:47:55;19.70;99.90
22337;DHT22;14992;50.844;4.418;2022-09-09T17:50:57;19.50;99.90
22337;DHT22;14992;50.844;4.418;2022-09-09T17:53:36;19.60;99.90
22337;DHT22;14992;50.844;4.418;2022-09-09T17:56:32;19.70;99.90
22337;DHT22;14992;50.844;4.418;2022-09-09T17:59:17;19.70;99.90
22337;DHT22;14992;50.844;4.418;2022-09-09T18:02:12;19.60;99.90
22337;DHT22;14992;50.844;4.418;2022-09-09T18:04:55;19.70;99.90